createdAt,value
2023-02-08T00:01:49.827Z,-1.83
2023-02-08T00:04:16.583Z,-1.89
2023-02-08T00:06:43.257Z,-1.81
2023-02-08T00:09:09.972Z,-1.91
2023-02-08T00:11:37.049Z,-1.84
2023-02-08T00:14:03.880Z,-1.90
2023-02-08T00:16:30.541Z,-1.93
2023-02-08T00:19:00.090Z,-1.98
2023-02-08T00:21:26.807Z,-2.04
2023-02-08T00:23:53.710Z,-2.12
2023-02-08T00:26:20.550Z,-2.37
2023-02-08T00:28:47.370Z,-2.39
2023-02-08T00:31:17.702Z,-2.48
2023-02-08T00:33:44.472Z,-2.41
2023-02-08T00:36:12.013Z,-2.42
2023-02-08T00:38:41.535Z,-2.43
2023-02-08T00:41:08.743Z,-2.46
2023-02-08T00:43:35.932Z,-1.92
2023-02-08T00:46:02.993Z,-1.97
2023-02-08T00:48:30.111Z,-1.79
2023-02-08T00:51:03.737Z,-2.05
2023-02-08T00:53:30.797Z,-1.92
2023-02-08T00:55:57.739Z,-1.97
2023-02-08T00:58:25.525Z,-2.00
2023-02-08T01:00:53.837Z,-2.13
2023-02-08T01:03:22.021Z,-1.97
2023-02-08T01:05:49.199Z,-2.02
2023-02-08T01:08:16.207Z,-2.27
2023-02-08T01:10:42.950Z,-2.43
2023-02-08T01:13:09.966Z,-2.62
2023-02-08T01:15:37.066Z,-2.50
2023-02-08T01:18:04.003Z,-2.46
2023-02-08T01:20:31.375Z,-2.59
2023-02-08T01:22:58.028Z,-2.63
2023-02-08T01:25:24.878Z,-2.67
2023-02-08T01:27:51.585Z,-2.60
2023-02-08T01:30:19.410Z,-2.61
2023-02-08T01:32:46.237Z,-2.53
2023-02-08T01:35:13.106Z,-2.50
2023-02-08T01:37:39.857Z,-2.60
2023-02-08T01:40:07.264Z,-2.56
2023-02-08T01:42:34.037Z,-2.74
2023-02-08T01:45:16.239Z,-2.61
2023-02-08T01:47:45.273Z,-2.51
2023-02-08T01:50:13.562Z,-2.69
2023-02-08T01:52:43.161Z,-2.75
2023-02-08T01:55:15.389Z,-2.85
2023-02-08T01:57:43.704Z,-2.84
2023-02-08T02:00:17.963Z,-2.65
2023-02-08T02:02:46.480Z,-2.91
2023-02-08T02:05:14.249Z,-2.93
2023-02-08T02:07:41.144Z,-2.89
2023-02-08T02:10:14.437Z,-2.87
2023-02-08T02:12:42.922Z,-2.96
2023-02-08T02:15:10.207Z,-2.86
2023-02-08T02:17:38.274Z,-2.95
2023-02-08T02:20:10.629Z,-3.00
2023-02-08T02:23:10.624Z,-2.93
2023-02-08T02:25:37.488Z,-2.79
2023-02-08T02:28:21.887Z,-2.79
2023-02-08T02:31:25.236Z,-2.85
2023-02-08T02:34:04.701Z,-2.72
2023-02-08T02:36:43.582Z,-2.66
2023-02-08T02:39:26.330Z,-2.61
2023-02-08T02:42:30.671Z,-2.55
2023-02-08T02:45:26.735Z,-2.63
2023-02-08T02:48:02.166Z,-2.75
2023-02-08T02:50:38.082Z,-2.79
2023-02-08T02:53:49.888Z,-2.79
2023-02-08T02:56:23.953Z,-2.69
2023-02-08T02:58:53.135Z,-2.82
2023-02-08T03:01:29.144Z,-2.99
2023-02-08T03:03:56.721Z,-2.87
2023-02-08T03:06:36.084Z,-3.00
2023-02-08T03:09:28.002Z,-2.97
2023-02-08T03:12:04.612Z,-2.81
2023-02-08T03:14:36.319Z,-3.05
2023-02-08T03:17:40.364Z,-3.07
2023-02-08T03:20:14.892Z,-3.21
2023-02-08T03:22:50.481Z,-3.30
2023-02-08T03:25:32.545Z,-3.33
2023-02-08T03:28:08.798Z,-3.14
2023-02-08T03:30:52.091Z,-3.18
2023-02-08T03:33:31.130Z,-3.24
2023-02-08T03:36:11.001Z,-3.33
2023-02-08T03:38:44.328Z,-3.53
2023-02-08T03:41:14.569Z,-3.48
2023-02-08T03:44:01.420Z,-3.47
2023-02-08T03:46:33.953Z,-3.59
2023-02-08T03:49:08.905Z,-3.49
2023-02-08T03:51:39.327Z,-3.63
2023-02-08T03:54:11.075Z,-3.54
2023-02-08T03:56:48.710Z,-3.58
2023-02-08T03:59:21.944Z,-3.56
2023-02-08T04:02:01.206Z,-3.53
2023-02-08T04:04:32.040Z,-3.50
2023-02-08T04:06:58.869Z,-3.52
2023-02-08T04:09:25.718Z,-3.43
2023-02-08T04:11:52.410Z,-3.45
2023-02-08T04:14:19.311Z,-3.56
2023-02-08T04:16:46.377Z,-3.59
2023-02-08T04:19:13.303Z,-3.63
2023-02-08T04:21:40.222Z,-3.46
2023-02-08T04:24:07.081Z,-3.49
2023-02-08T04:26:33.745Z,-3.47
2023-02-08T04:29:01.052Z,-3.18
2023-02-08T04:31:27.895Z,-3.16
2023-02-08T04:33:54.636Z,-3.21
2023-02-08T04:36:21.635Z,-3.24
2023-02-08T04:38:48.535Z,-3.30
2023-02-08T04:41:15.393Z,-3.26
2023-02-08T04:43:42.165Z,-3.39
2023-02-08T04:46:08.890Z,-3.32
2023-02-08T04:48:35.704Z,-3.21
2023-02-08T04:51:02.540Z,-3.31
2023-02-08T04:53:29.464Z,-3.31
2023-02-08T04:55:56.138Z,-3.15
2023-02-08T04:58:23.222Z,-3.11
2023-02-08T05:00:50.001Z,-3.14
2023-02-08T05:03:16.777Z,-3.31
2023-02-08T05:05:43.686Z,-3.12
2023-02-08T05:08:10.499Z,-2.89
2023-02-08T05:10:37.241Z,-3.00
2023-02-08T05:13:03.989Z,-2.98
2023-02-08T05:15:30.707Z,-3.01
2023-02-08T05:17:57.385Z,-3.06
2023-02-08T05:20:24.102Z,-3.07
2023-02-08T05:22:50.737Z,-3.26
2023-02-08T05:25:18.231Z,-3.29
2023-02-08T05:27:45.017Z,-3.14
2023-02-08T05:30:11.946Z,-3.14
2023-02-08T05:32:38.914Z,-3.19
2023-02-08T05:35:07.311Z,-3.10
2023-02-08T05:37:34.250Z,-2.92
2023-02-08T05:40:01.044Z,-2.84
2023-02-08T05:42:28.106Z,-2.96
2023-02-08T05:44:54.911Z,-2.86
2023-02-08T05:47:22.072Z,-2.98
2023-02-08T05:49:48.974Z,-3.13
2023-02-08T05:52:15.879Z,-3.21
2023-02-08T05:54:42.697Z,-3.03
2023-02-08T05:57:09.581Z,-2.81
2023-02-08T05:59:36.359Z,-2.86
2023-02-08T06:02:03.080Z,-2.80
2023-02-08T06:04:29.842Z,-2.82
2023-02-08T06:06:56.571Z,-2.83
2023-02-08T06:09:23.373Z,-2.75
2023-02-08T06:11:50.159Z,-2.90
2023-02-08T06:14:17.091Z,-2.79
2023-02-08T06:16:43.867Z,-2.66
2023-02-08T06:19:10.703Z,-2.64
2023-02-08T06:21:37.357Z,-2.62
2023-02-08T06:24:04.841Z,-2.72
2023-02-08T06:26:31.573Z,-2.70
2023-02-08T06:28:59.627Z,-2.83
2023-02-08T06:31:26.657Z,-2.94
2023-02-08T06:33:53.416Z,-2.96
2023-02-08T06:36:20.248Z,-2.85
2023-02-08T06:38:46.994Z,-2.77
2023-02-08T06:41:13.720Z,-2.88
2023-02-08T06:43:40.961Z,-3.02
2023-02-08T06:46:08.811Z,-3.10
2023-02-08T06:48:35.730Z,-3.09
2023-02-08T06:51:02.979Z,-3.01
2023-02-08T06:53:30.246Z,-3.10
2023-02-08T06:55:56.985Z,-3.16
2023-02-08T06:58:23.677Z,-3.27
2023-02-08T07:00:50.432Z,-3.26
2023-02-08T07:03:20.170Z,-3.27
2023-02-08T07:06:03.488Z,-2.99
2023-02-08T07:08:31.958Z,-3.06
2023-02-08T07:10:58.608Z,-2.92
2023-02-08T07:13:25.346Z,-2.93
2023-02-08T07:15:52.032Z,-2.88
2023-02-08T07:18:18.703Z,-2.56
2023-02-08T07:20:45.400Z,-2.10
2023-02-08T07:23:12.086Z,-1.62
2023-02-08T07:25:38.915Z,-1.32
2023-02-08T07:28:05.774Z,-0.33
2023-02-08T07:30:32.537Z,-0.85
2023-02-08T07:32:59.421Z,-0.16
2023-02-08T07:35:26.212Z,-0.84
2023-02-08T07:37:52.992Z,-1.07
2023-02-08T07:40:19.968Z,-1.03
2023-02-08T07:42:46.829Z,-1.03
2023-02-08T07:45:29.194Z,-0.74
2023-02-08T07:47:55.923Z,-0.77
2023-02-08T07:50:22.820Z,-0.65
2023-02-08T07:52:49.651Z,-0.17
2023-02-08T07:55:17.297Z,-0.44
2023-02-08T07:57:45.293Z,-0.32
2023-02-08T08:00:15.216Z,-0.22
2023-02-08T08:02:43.029Z,-0.06
2023-02-08T08:05:10.920Z,0.46
2023-02-08T08:07:37.750Z,0.33
2023-02-08T08:10:05.049Z,0.33
2023-02-08T08:12:31.726Z,0.77
2023-02-08T08:14:58.388Z,0.27
2023-02-08T08:17:25.494Z,0.58
2023-02-08T08:19:52.175Z,0.68
2023-02-08T08:22:18.995Z,0.55
2023-02-08T08:24:45.831Z,0.57
2023-02-08T08:27:12.521Z,0.28
2023-02-08T08:29:39.355Z,1.15
2023-02-08T08:32:07.468Z,0.65
2023-02-08T08:34:34.177Z,0.58
2023-02-08T08:37:02.438Z,0.42
2023-02-08T08:39:29.449Z,2.32
2023-02-08T08:42:00.699Z,1.00
2023-02-08T08:44:27.839Z,0.65
2023-02-08T08:46:56.870Z,1.15
2023-02-08T08:49:24.919Z,1.90
2023-02-08T08:51:52.117Z,1.51
2023-02-08T08:54:19.763Z,0.60
2023-02-08T08:56:46.801Z,0.57
2023-02-08T08:59:14.078Z,1.50
2023-02-08T09:01:42.823Z,1.00
2023-02-08T09:04:10.906Z,0.94
2023-02-08T09:06:38.064Z,1.07
2023-02-08T09:09:05.181Z,0.55
2023-02-08T09:11:33.362Z,0.85
2023-02-08T09:14:04.423Z,0.98
2023-02-08T09:16:32.817Z,1.31
2023-02-08T09:19:04.693Z,1.34
2023-02-08T09:21:31.689Z,1.28
2023-02-08T09:23:58.484Z,1.29
2023-02-08T09:26:28.319Z,1.23
2023-02-08T09:28:55.157Z,1.50
2023-02-08T09:31:24.861Z,1.19
2023-02-08T09:33:53.457Z,1.20
2023-02-08T09:36:21.874Z,1.49
2023-02-08T09:38:49.775Z,0.93
2023-02-08T09:41:35.402Z,1.25
2023-02-08T09:44:37.664Z,1.20
2023-02-08T09:47:16.995Z,1.18
2023-02-08T09:49:58.619Z,1.73
2023-02-08T09:52:33.595Z,1.73
2023-02-08T09:55:11.211Z,1.65
2023-02-08T09:57:39.124Z,1.85
2023-02-08T10:00:15.295Z,2.00
2023-02-08T10:02:44.395Z,2.20
2023-02-08T10:05:19.655Z,2.18
2023-02-08T10:07:46.692Z,2.84
2023-02-08T10:10:28.081Z,2.53
2023-02-08T10:13:41.697Z,2.02
2023-02-08T10:16:27.798Z,3.28
2023-02-08T10:19:04.141Z,2.13
2023-02-08T10:21:38.968Z,3.03
2023-02-08T10:24:23.633Z,2.75
2023-02-08T10:27:37.708Z,2.90
2023-02-08T10:30:23.761Z,2.85
2023-02-08T10:32:59.669Z,2.71
2023-02-08T10:35:37.542Z,3.42
2023-02-08T10:38:45.451Z,3.35
2023-02-08T10:41:19.708Z,2.66
2023-02-08T10:43:53.578Z,3.41
2023-02-08T10:46:40.792Z,3.70
2023-02-08T10:49:35.770Z,3.69
2023-02-08T10:52:02.914Z,4.58
2023-02-08T10:54:30.012Z,4.18
2023-02-08T10:57:04.422Z,4.06
2023-02-08T10:59:43.184Z,3.91
2023-02-08T11:02:40.375Z,3.69
2023-02-08T11:05:21.177Z,3.76
2023-02-08T11:07:48.052Z,3.81
2023-02-08T11:10:22.222Z,4.26
2023-02-08T11:13:01.206Z,3.99
2023-02-08T11:15:38.060Z,4.21
2023-02-08T11:18:07.179Z,4.06
2023-02-08T11:20:37.675Z,4.42
2023-02-08T11:23:23.944Z,4.17
2023-02-08T11:25:52.342Z,4.58
2023-02-08T11:28:28.920Z,4.43
2023-02-08T11:31:18.268Z,4.90
2023-02-08T11:34:00.081Z,4.41
2023-02-08T11:36:27.988Z,4.73
2023-02-08T11:38:55.774Z,4.14
2023-02-08T11:41:23.876Z,4.80
2023-02-08T11:44:05.959Z,4.92
2023-02-08T11:46:36.011Z,4.96
2023-02-08T11:49:03.857Z,4.59
2023-02-08T11:51:37.934Z,4.18
2023-02-08T11:54:05.962Z,4.62
2023-02-08T11:56:34.628Z,4.92
2023-02-08T11:59:06.880Z,5.40
2023-02-08T12:01:39.486Z,5.06
2023-02-08T12:04:14.987Z,5.38
2023-02-08T12:06:56.825Z,5.61
2023-02-08T12:09:54.122Z,5.77
2023-02-08T12:13:10.563Z,6.38
2023-02-08T12:15:51.394Z,6.23
2023-02-08T12:18:40.693Z,5.21
2023-02-08T12:21:20.575Z,5.12
2023-02-08T12:24:01.132Z,5.25
2023-02-08T12:26:55.391Z,5.36
2023-02-08T12:29:54.297Z,6.03
2023-02-08T12:32:30.832Z,5.19
2023-02-08T12:35:41.650Z,5.13
2023-02-08T12:38:45.939Z,5.72
2023-02-08T12:41:23.361Z,6.07
2023-02-08T12:44:13.751Z,5.15
2023-02-08T12:47:05.356Z,5.66
2023-02-08T12:49:50.228Z,5.92
2023-02-08T12:52:41.567Z,6.26
2023-02-08T12:55:31.180Z,5.96
2023-02-08T12:58:00.475Z,6.37
2023-02-08T13:00:32.025Z,5.17
2023-02-08T13:03:04.250Z,5.39
2023-02-08T13:05:38.266Z,5.43
2023-02-08T13:08:20.260Z,5.80
2023-02-08T13:10:53.078Z,5.48
2023-02-08T13:13:24.169Z,5.68
2023-02-08T13:16:15.088Z,5.35
2023-02-08T13:18:47.843Z,5.60
2023-02-08T13:21:19.988Z,5.66
2023-02-08T13:23:52.811Z,5.70
2023-02-08T13:26:29.244Z,5.80
2023-02-08T13:29:01.005Z,5.64
2023-02-08T13:31:39.075Z,5.91
2023-02-08T13:34:15.230Z,5.27
2023-02-08T13:36:51.989Z,5.93
2023-02-08T13:39:33.872Z,5.20
2023-02-08T13:42:02.669Z,5.81
2023-02-08T13:44:38.614Z,5.54
2023-02-08T13:47:07.657Z,5.81
2023-02-08T13:49:49.547Z,5.55
2023-02-08T13:52:47.502Z,5.57
2023-02-08T13:55:30.750Z,6.00
2023-02-08T13:58:25.053Z,6.09
2023-02-08T14:00:55.111Z,6.11
2023-02-08T14:03:29.914Z,5.50
2023-02-08T14:05:58.903Z,5.64
2023-02-08T14:08:35.248Z,5.64
2023-02-08T14:11:18.906Z,6.00
2023-02-08T14:14:23.893Z,5.82
2023-02-08T14:17:29.847Z,5.61
2023-02-08T14:20:06.548Z,5.95
2023-02-08T14:22:50.720Z,5.86
2023-02-08T14:25:21.029Z,5.58
2023-02-08T14:28:03.253Z,5.60
2023-02-08T14:30:35.477Z,5.74
2023-02-08T14:33:06.465Z,5.84
2023-02-08T14:35:36.935Z,5.35
2023-02-08T14:38:19.054Z,5.58
2023-02-08T14:40:59.085Z,5.56
2023-02-08T14:43:41.198Z,5.35
2023-02-08T14:46:39.324Z,5.22
2023-02-08T14:49:14.913Z,5.60
2023-02-08T14:51:50.338Z,5.89
2023-02-08T14:54:23.204Z,5.50
2023-02-08T14:57:03.994Z,5.54
2023-02-08T14:59:34.540Z,5.66
2023-02-08T15:02:15.806Z,5.37
2023-02-08T15:04:44.615Z,5.43
2023-02-08T15:07:33.569Z,5.35
2023-02-08T15:10:04.009Z,5.07
2023-02-08T15:12:34.522Z,5.35
2023-02-08T15:15:04.062Z,5.43
2023-02-08T15:17:48.942Z,5.20
2023-02-08T15:20:27.119Z,5.23
2023-02-08T15:23:04.247Z,5.07
2023-02-08T15:25:36.569Z,4.83
2023-02-08T15:28:17.441Z,4.78
2023-02-08T15:30:45.618Z,4.45
2023-02-08T15:33:18.063Z,4.28
2023-02-08T15:35:46.167Z,4.25
2023-02-08T15:38:18.401Z,4.40
2023-02-08T15:41:03.943Z,4.21
2023-02-08T15:43:31.980Z,4.06
2023-02-08T15:46:01.528Z,4.04
2023-02-08T15:48:29.907Z,3.78
2023-02-08T15:50:57.830Z,3.79
2023-02-08T15:53:25.109Z,3.75
2023-02-08T15:55:56.477Z,3.67
2023-02-08T15:58:35.960Z,3.53
2023-02-08T16:01:05.219Z,3.32
2023-02-08T16:03:32.644Z,3.29
2023-02-08T16:06:02.995Z,3.33
2023-02-08T16:08:32.734Z,3.24
2023-02-08T16:11:09.277Z,3.13
2023-02-08T16:13:39.028Z,3.05
2023-02-08T16:16:28.291Z,2.91
2023-02-08T16:19:00.225Z,2.89
2023-02-08T16:21:42.819Z,2.75
2023-02-08T16:24:12.538Z,2.77
2023-02-08T16:27:03.615Z,2.69
2023-02-08T16:29:39.553Z,2.68
2023-02-08T16:32:20.643Z,2.66
2023-02-08T16:34:47.661Z,2.55
2023-02-08T16:37:26.644Z,2.53
2023-02-08T16:40:02.615Z,2.50
2023-02-08T16:42:34.188Z,2.55
2023-02-08T16:45:02.525Z,2.32
2023-02-08T16:47:49.792Z,2.28
2023-02-08T16:50:24.897Z,2.04
2023-02-08T16:53:00.274Z,2.02
2023-02-08T16:55:30.851Z,1.91
2023-02-08T16:57:58.548Z,1.92
2023-02-08T17:00:34.226Z,1.77
2023-02-08T17:03:01.908Z,1.72
2023-02-08T17:05:30.732Z,1.72
2023-02-08T17:07:58.688Z,1.77
2023-02-08T17:10:30.294Z,1.63
2023-02-08T17:13:13.480Z,1.46
2023-02-08T17:15:47.482Z,1.49
2023-02-08T17:18:14.431Z,1.34
2023-02-08T17:20:41.317Z,1.30
2023-02-08T17:23:08.036Z,1.34
2023-02-08T17:25:35.392Z,1.37
2023-02-08T17:28:07.669Z,1.34
2023-02-08T17:30:41.528Z,1.26
2023-02-08T17:33:11.736Z,1.23
2023-02-08T17:35:38.773Z,1.00
2023-02-08T17:38:07.883Z,1.02
2023-02-08T17:40:37.739Z,0.89
2023-02-08T17:43:06.049Z,0.84
2023-02-08T17:45:38.211Z,0.74
2023-02-08T17:48:05.657Z,0.61
2023-02-08T17:50:32.676Z,0.56
2023-02-08T17:52:59.422Z,0.45
2023-02-08T17:55:26.378Z,0.24
2023-02-08T17:57:53.859Z,0.21
2023-02-08T18:00:22.616Z,0.18
2023-02-08T18:02:54.916Z,0.11
2023-02-08T18:05:27.596Z,0.15
2023-02-08T18:07:56.434Z,0.06
2023-02-08T18:10:24.971Z,0.08
2023-02-08T18:12:52.053Z,0.12
2023-02-08T18:15:21.273Z,0.13
2023-02-08T18:17:50.568Z,0.01
2023-02-08T18:20:18.563Z,0.03
2023-02-08T18:22:45.919Z,-0.11
2023-02-08T18:25:13.715Z,-0.22
2023-02-08T18:27:40.688Z,-0.41
2023-02-08T18:30:09.897Z,-0.39
2023-02-08T18:32:36.886Z,-0.41
2023-02-08T18:35:04.633Z,-0.42
2023-02-08T18:37:32.424Z,-0.39
2023-02-08T18:40:00.413Z,-0.48
2023-02-08T18:42:27.283Z,-0.53
2023-02-08T18:44:54.089Z,-0.43
2023-02-08T18:47:20.886Z,-0.60
2023-02-08T18:49:47.880Z,-0.90
2023-02-08T18:52:17.543Z,-0.79
2023-02-08T18:54:44.208Z,-0.58
2023-02-08T18:57:10.973Z,-0.65
2023-02-08T18:59:38.548Z,-0.62
2023-02-08T19:02:07.304Z,-0.57
2023-02-08T19:04:40.567Z,-0.58
2023-02-08T19:07:07.511Z,-0.67
2023-02-08T19:09:36.242Z,-0.61
2023-02-08T19:12:03.566Z,-0.72
2023-02-08T19:14:30.433Z,-0.61
2023-02-08T19:16:57.238Z,-0.68
2023-02-08T19:19:24.155Z,-0.78
2023-02-08T19:21:50.851Z,-0.83
2023-02-08T19:24:19.685Z,-0.86
2023-02-08T19:26:47.208Z,-0.90
2023-02-08T19:29:16.585Z,-0.72
2023-02-08T19:31:44.663Z,-0.51
2023-02-08T19:34:12.570Z,-0.48
2023-02-08T19:36:51.890Z,-0.77
2023-02-08T19:39:27.088Z,-0.82
2023-02-08T19:41:55.047Z,-0.86
2023-02-08T19:44:23.082Z,-0.59
2023-02-08T19:46:54.800Z,-0.72
2023-02-08T19:49:23.832Z,-0.74
2023-02-08T19:51:50.641Z,-0.91
2023-02-08T19:54:19.231Z,-0.97
2023-02-08T19:56:46.649Z,-0.96
2023-02-08T19:59:21.081Z,-0.80
2023-02-08T20:01:47.941Z,-0.92
2023-02-08T20:04:15.272Z,-1.07
2023-02-08T20:06:42.942Z,-0.89
2023-02-08T20:09:09.739Z,-1.00
2023-02-08T20:11:45.151Z,-1.07
2023-02-08T20:14:21.798Z,-1.11
2023-02-08T20:16:48.720Z,-1.10
2023-02-08T20:19:15.635Z,-0.96
2023-02-08T20:21:44.485Z,-1.13
2023-02-08T20:24:12.373Z,-1.17
2023-02-08T20:26:41.772Z,-1.18
2023-02-08T20:29:09.083Z,-1.09
2023-02-08T20:31:37.592Z,-0.92
2023-02-08T20:34:06.942Z,-0.50
2023-02-08T20:36:40.845Z,-0.49
2023-02-08T20:39:11.107Z,-0.91
2023-02-08T20:41:38.524Z,-1.21
2023-02-08T20:44:05.741Z,-1.31
2023-02-08T20:46:35.295Z,-1.26
2023-02-08T20:49:04.141Z,-0.91
2023-02-08T20:51:31.803Z,-0.94
2023-02-08T20:54:00.119Z,-0.73
2023-02-08T20:56:29.840Z,-0.97
2023-02-08T20:58:57.445Z,-0.99
2023-02-08T21:01:27.547Z,-1.01
2023-02-08T21:03:55.796Z,-1.20
2023-02-08T21:06:26.628Z,-1.20
2023-02-08T21:08:55.442Z,-1.09
2023-02-08T21:11:25.087Z,-1.10
2023-02-08T21:13:52.353Z,-1.17
2023-02-08T21:16:19.658Z,-1.19
2023-02-08T21:18:47.252Z,-0.91
2023-02-08T21:21:15.252Z,-0.83
2023-02-08T21:23:42.607Z,-1.07
2023-02-08T21:26:12.311Z,-1.27
2023-02-08T21:28:39.109Z,-1.05
2023-02-08T21:31:09.094Z,-0.73
2023-02-08T21:33:35.861Z,-0.91
2023-02-08T21:36:04.345Z,-0.92
2023-02-08T21:38:31.420Z,-1.05
2023-02-08T21:40:58.111Z,-0.86
2023-02-08T21:43:24.864Z,-0.88
2023-02-08T21:45:51.591Z,-0.80
2023-02-08T21:48:18.409Z,-0.94
2023-02-08T21:51:03.790Z,-1.13
2023-02-08T21:53:49.145Z,-1.03
2023-02-08T21:56:15.904Z,-1.03
2023-02-08T21:58:42.630Z,-0.96
2023-02-08T22:01:09.498Z,-0.88
2023-02-08T22:03:36.253Z,-0.86
2023-02-08T22:06:03.468Z,-0.91
2023-02-08T22:08:30.195Z,-1.01
2023-02-08T22:10:58.628Z,-0.91
2023-02-08T22:13:25.472Z,-0.89
2023-02-08T22:15:52.247Z,-0.91
2023-02-08T22:18:19.040Z,-0.95
2023-02-08T22:20:46.099Z,-1.07
2023-02-08T22:23:12.942Z,-0.92
2023-02-08T22:25:39.622Z,-1.05
2023-02-08T22:28:08.288Z,-1.01
2023-02-08T22:30:35.248Z,-0.91
2023-02-08T22:33:02.465Z,-0.95
2023-02-08T22:35:29.208Z,-1.00
2023-02-08T22:37:55.923Z,-1.06
2023-02-08T22:40:22.819Z,-1.04
2023-02-08T22:42:49.521Z,-1.00
2023-02-08T22:45:16.462Z,-1.08
2023-02-08T22:47:44.651Z,-0.92
2023-02-08T22:50:12.559Z,-1.04
2023-02-08T22:52:39.467Z,-1.02
2023-02-08T22:55:06.854Z,-1.11
2023-02-08T22:57:35.762Z,-1.21
2023-02-08T23:00:03.752Z,-1.09
2023-02-08T23:02:30.801Z,-1.02
2023-02-08T23:04:57.816Z,-1.10
2023-02-08T23:07:24.653Z,-1.24
2023-02-08T23:09:51.564Z,-1.06
2023-02-08T23:12:18.552Z,-1.28
2023-02-08T23:14:45.378Z,-1.56
2023-02-08T23:17:12.353Z,-1.52
2023-02-08T23:19:40.636Z,-1.27
2023-02-08T23:22:07.686Z,-1.35
2023-02-08T23:24:34.563Z,-1.34
2023-02-08T23:27:01.549Z,-1.47
2023-02-08T23:29:28.503Z,-1.58
2023-02-08T23:31:55.513Z,-1.68
2023-02-08T23:34:22.343Z,-1.62
2023-02-08T23:36:49.131Z,-1.66
2023-02-08T23:39:15.961Z,-1.42
2023-02-08T23:41:42.977Z,-1.56
2023-02-08T23:44:10.116Z,-1.77
2023-02-08T23:46:37.064Z,-1.85
2023-02-08T23:49:04.226Z,-1.76
2023-02-08T23:51:31.072Z,-2.02
2023-02-08T23:53:57.783Z,-1.91
2023-02-08T23:56:27.071Z,-1.99
2023-02-08T23:58:56.917Z,-1.92
